Time;durP1;ratioP1;P1;durP2;ratioP2;P2;SDS_P1;SDS_P2;PMS_P1;PMS_P2;Temp;Humidity;BMP_temperature;BMP_pressure;BME280_temperature;BME280_humidity;BME280_pressure;Samples;Min_cycle;Max_cycle;Signal;HPM_P1;HPM_P2
2022/10/24 00:00:43;;;;;;;14.93;10.35;;;;;;;10.41;100.00;150271.55;1803493;78;21235;-65
2022/10/24 00:03:10;;;;;;;16.87;10.48;;;;;;;10.40;100.00;150268.97;1811188;78;21059;-65
2022/10/24 00:05:43;;;;;;;16.95;11.10;;;;;;;10.38;100.00;150262.41;1800948;78;21052;-66
2022/10/24 00:08:09;;;;;;;13.95;10.13;;;;;;;10.37;100.00;150259.81;1805182;78;21349;-66
2022/10/24 00:10:42;;;;;;;17.35;10.55;;;;;;;10.37;100.00;150259.81;1797884;78;21040;-65
2022/10/24 00:13:10;;;;;;;15.68;10.30;;;;;;;10.36;100.00;150257.22;1793887;78;21944;-66
2022/10/24 00:15:36;;;;;;;15.88;10.10;;;;;;;10.32;100.00;150249.44;1803174;78;21493;-65
2022/10/24 00:18:03;;;;;;;14.30;9.90;;;;;;;10.30;100.00;150242.94;1798031;78;21028;-66
2022/10/24 00:20:31;;;;;;;18.40;10.82;;;;;;;10.27;100.00;150235.16;1796074;78;21497;-66
2022/10/24 00:22:57;;;;;;;16.25;10.32;;;;;;;10.24;100.00;150228.66;1804004;78;21107;-66
2022/10/24 00:25:25;;;;;;;19.07;11.78;;;;;;;10.20;100.00;150218.28;1802540;78;21461;-66
2022/10/24 00:27:52;;;;;;;17.82;10.43;;;;;;;10.16;100.00;150207.91;1793671;78;21096;-65
2022/10/24 00:30:19;;;;;;;16.35;10.90;;;;;;;10.12;100.00;150197.55;1802076;78;21068;-66
2022/10/24 00:32:46;;;;;;;16.23;10.75;;;;;;;10.07;100.00;150184.59;1802210;78;21013;-66
2022/10/24 00:35:13;;;;;;;19.77;10.95;;;;;;;10.02;100.00;150172.89;1802318;78;20913;-63
2022/10/24 00:37:40;;;;;;;15.28;10.23;;;;;;;9.96;100.00;150157.34;1803848;78;21238;-62
2022/10/24 00:40:09;;;;;;;14.25;9.90;;;;;;;9.92;100.00;150146.92;1810212;78;21015;-63
2022/10/24 00:42:35;;;;;;;16.37;10.58;;;;;;;9.90;100.00;150143.06;1778064;79;21468;-63
2022/10/24 00:45:28;;;;;;;15.78;9.25;;;;;;;9.89;100.00;150140.47;1820316;78;21056;-63
2022/10/24 00:47:56;;;;;;;17.52;10.13;;;;;;;9.87;100.00;150135.28;1802001;78;21005;-63
2022/10/24 00:50:23;;;;;;;15.15;10.23;;;;;;;9.86;100.00;150133.97;1802732;79;21819;-65
2022/10/24 00:52:50;;;;;;;18.55;10.63;;;;;;;9.86;100.00;150133.97;1816139;78;21023;-65
2022/10/24 00:55:20;;;;;;;15.58;10.23;;;;;;;9.87;100.00;150135.28;1807533;78;21115;-65
2022/10/24 00:57:52;;;;;;;18.60;10.82;;;;;;;9.87;100.00;150136.56;1811780;78;20996;-64
2022/10/24 01:00:24;;;;;;;14.90;9.55;;;;;;;9.88;100.00;150139.16;1807150;78;21067;-65
2022/10/24 01:02:50;;;;;;;16.60;10.32;;;;;;;9.90;100.00;150143.06;1807394;78;21259;-64
2022/10/24 01:05:18;;;;;;;15.72;9.80;;;;;;;9.89;100.00;150140.47;1808871;78;21093;-64
2022/10/24 01:08:15;;;;;;;16.93;10.65;;;;;;;9.87;100.00;150135.28;1821998;78;21305;-64
2022/10/24 01:10:48;;;;;;;16.85;10.65;;;;;;;9.85;100.00;150130.11;1820271;78;21082;-65
2022/10/24 01:13:38;;;;;;;15.30;9.88;;;;;;;9.79;100.00;150114.50;1811612;78;21457;-66
2022/10/24 01:16:18;;;;;;;17.60;10.25;;;;;;;9.74;100.00;150104.14;1801827;79;21453;-64
2022/10/24 01:19:13;;;;;;;16.10;10.30;;;;;;;9.71;100.00;150096.36;1807410;78;21008;-64
2022/10/24 01:21:47;;;;;;;15.13;9.48;;;;;;;9.69;100.00;150091.19;1813233;78;21035;-64
2022/10/24 01:24:44;;;;;;;14.75;9.83;;;;;;;9.69;100.00;150089.86;1806999;78;21075;-65
2022/10/24 01:27:50;;;;;;;16.80;9.35;;;;;;;9.70;100.00;150093.78;1811780;78;21094;-66
2022/10/24 01:30:16;;;;;;;18.20;9.10;;;;;;;9.71;100.00;150096.36;1812523;78;21244;-63
2022/10/24 01:32:49;;;;;;;20.32;10.15;;;;;;;9.72;100.00;150098.95;1819906;78;21030;-62
2022/10/24 01:35:54;;;;;;;14.83;9.60;;;;;;;9.73;100.00;150101.55;1802762;78;21052;-62
2022/10/24 01:38:40;;;;;;;19.00;10.68;;;;;;;9.70;100.00;150093.78;1799619;78;21072;-62
2022/10/24 01:41:11;;;;;;;15.53;9.98;;;;;;;9.68;100.00;150088.59;1803696;78;21035;-62
2022/10/24 01:43:48;;;;;;;17.27;10.48;;;;;;;9.64;100.00;150078.22;1800118;78;21131;-62
2022/10/24 01:46:20;;;;;;;16.52;10.30;;;;;;;9.58;100.00;150062.62;1806213;78;21112;-63
2022/10/24 01:48:50;;;;;;;13.70;9.13;;;;;;;9.54;100.00;150052.27;1802451;78;21056;-63
2022/10/24 01:51:17;;;;;;;17.37;10.38;;;;;;;9.50;100.00;150043.17;1793148;78;21533;-62
2022/10/24 01:53:44;;;;;;;18.77;10.90;;;;;;;9.46;100.00;150032.81;1797885;78;21041;-63
2022/10/24 01:56:11;;;;;;;15.60;10.38;;;;;;;9.44;100.00;150027.63;1797859;78;21192;-62
2022/10/24 01:58:38;;;;;;;20.65;11.00;;;;;;;9.42;100.00;150022.44;1797900;78;21027;-62
2022/10/24 02:01:12;;;;;;;16.77;10.45;;;;;;;9.39;100.00;150015.94;1797633;78;21036;-63
2022/10/24 02:03:50;;;;;;;17.48;10.40;;;;;;;9.40;100.00;150018.58;1798051;78;21038;-63
2022/10/24 02:06:25;;;;;;;15.75;9.75;;;;;;;9.40;100.00;150018.58;1797919;78;21092;-62
2022/10/24 02:08:55;;;;;;;19.92;11.00;;;;;;;9.41;100.00;150021.17;1803406;78;21684;-62
2022/10/24 02:11:22;;;;;;;17.85;10.93;;;;;;;9.40;100.00;150017.27;1800952;78;20996;-63
2022/10/24 02:14:08;;;;;;;16.12;10.30;;;;;;;9.38;100.00;150013.34;1772368;80;21073;-62
2022/10/24 02:16:36;;;;;;;17.55;10.60;;;;;;;9.36;100.00;150008.17;1760858;80;21040;-62
2022/10/24 02:19:04;;;;;;;16.95;10.50;;;;;;;9.35;100.00;150005.58;1764226;80;21023;-61
2022/10/24 02:21:42;;;;;;;16.77;9.93;;;;;;;9.34;100.00;148520.48;1726294;80;21934;-61
2022/10/24 02:24:21;;;;;;;16.30;10.18;;;;;;;9.34;100.00;144541.22;1763787;80;21457;-62
2022/10/24 02:27:07;;;;;;;17.50;10.50;;;;;;;9.35;100.00;136832.41;1728458;81;20999;-62
2022/10/24 02:29:44;;;;;;;16.27;10.35;;;;;;;9.35;100.00;134066.42;1756415;80;21041;-66
2022/10/24 02:32:15;;;;;;;16.82;9.08;;;;;;;9.37;100.00;130959.38;1764010;80;21087;-66
2022/10/24 02:34:42;;;;;;;15.32;9.73;;;;;;;9.36;100.00;127504.23;1764405;80;21189;-66
2022/10/24 02:37:09;;;;;;;16.82;10.43;;;;;;;9.36;100.00;126297.59;1757830;80;21092;-66
2022/10/24 02:39:37;;;;;;;18.10;10.38;;;;;;;9.36;100.00;124400.56;1734385;81;21116;-66
2022/10/24 02:42:05;;;;;;;15.15;10.10;;;;;;;9.34;100.00;123017.30;1745556;79;21553;-65
2022/10/24 02:44:32;;;;;;;16.70;10.18;;;;;;;9.33;100.00;122669.47;1779722;79;20988;-66
2022/10/24 02:47:00;;;;;;;15.98;9.65;;;;;;;9.31;100.00;122149.37;1751540;81;21936;-66
2022/10/24 02:49:27;;;;;;;14.15;9.55;;;;;;;9.30;100.00;121458.19;1765916;79;21041;-65
2022/10/24 02:51:54;;;;;;;16.15;9.88;;;;;;;9.30;100.00;119220.72;1764354;79;21043;-65
2022/10/24 02:54:21;;;;;;;15.60;9.63;;;;;;;9.30;100.00;116811.56;1748008;81;21096;-64
2022/10/24 02:56:52;;;;;;;14.00;8.95;;;;;;;9.32;100.00;115094.73;1706149;82;21062;-66
2022/10/24 02:59:18;;;;;;;17.85;10.25;;;;;;;9.34;100.00;113207.79;1723367;82;21190;-66
2022/10/24 03:01:45;;;;;;;20.45;11.57;;;;;;;9.34;100.00;111146.12;1750354;81;21060;-66
2022/10/24 03:04:12;;;;;;;15.78;10.43;;;;;;;9.36;100.00;110119.56;1772958;79;21131;-63
2022/10/24 03:06:38;;;;;;;17.40;10.05;;;;;;;9.36;100.00;111492.56;1702337;83;21061;-63
2022/10/24 03:09:06;;;;;;;17.23;10.13;;;;;;;9.35;100.00;114068.19;1754020;81;21095;-63
2022/10/24 03:11:32;;;;;;;17.42;9.93;;;;;;;9.33;100.00;115439.66;1751718;81;21982;-62
2022/10/24 03:14:00;;;;;;;16.05;9.60;;;;;;;9.32;100.00;116298.55;1752325;79;21369;-66
2022/10/24 03:16:27;;;;;;;16.82;9.45;;;;;;;9.30;100.00;116982.56;1749988;81;21107;-65
2022/10/24 03:18:56;;;;;;;20.37;10.10;;;;;;;9.29;100.00;115605.61;1773236;79;21591;-65
2022/10/24 03:21:23;;;;;;;17.32;9.65;;;;;;;9.30;100.00;114919.82;1746520;81;21038;-62
2022/10/24 03:23:50;;;;;;;15.08;9.50;;;;;;;9.32;100.00;114578.94;1752484;81;21916;-61
2022/10/24 03:26:17;;;;;;;16.45;9.55;;;;;;;9.32;100.00;115438.63;1765050;80;21036;-61
2022/10/24 03:28:45;;;;;;;16.52;9.45;;;;;;;9.33;100.00;116472.56;1751003;81;21031;-62
2022/10/24 03:31:12;;;;;;;17.20;9.28;;;;;;;9.34;100.00;117333.78;1776994;79;21122;-64
2022/10/24 03:33:38;;;;;;;15.55;10.28;;;;;;;9.33;100.00;118193.13;1742304;81;21068;-61
2022/10/24 03:36:06;;;;;;;18.98;10.35;;;;;;;9.33;100.00;118021.03;1769578;79;21232;-62
2022/10/24 03:38:34;;;;;;;15.18;9.93;;;;;;;9.35;100.00;118541.44;1782364;79;20973;-63
2022/10/24 03:41:01;;;;;;;16.75;10.35;;;;;;;9.34;100.00;119572.25;1798993;79;21051;-62
2022/10/24 03:43:28;;;;;;;16.02;9.40;;;;;;;9.35;100.00;119918.68;1800897;79;21040;-62
2022/10/24 03:45:54;;;;;;;15.68;9.75;;;;;;;9.37;100.00;119578.46;1785818;79;21080;-61
2022/10/24 03:48:21;;;;;;;15.70;10.05;;;;;;;9.40;100.00;117690.14;1784116;79;21958;-63
2022/10/24 03:50:48;;;;;;;14.53;9.10;;;;;;;9.45;100.00;116152.75;1785657;79;21024;-62
2022/10/24 03:53:16;;;;;;;15.95;9.45;;;;;;;9.48;100.00;115813.70;1786554;79;21056;-62
2022/10/24 03:55:43;;;;;;;16.27;9.75;;;;;;;9.52;100.00;117025.17;1798043;79;21067;-63
2022/10/24 03:58:15;;;;;;;20.90;10.58;;;;;;;9.55;100.00;117203.36;1792953;79;21039;-63
2022/10/24 04:00:57;;;;;;;16.77;10.40;;;;;;;9.58;100.00;115832.78;1794223;79;21150;-62
2022/10/24 04:03:25;;;;;;;16.10;10.15;;;;;;;9.63;100.00;115498.74;1786973;80;22143;-63
2022/10/24 04:05:52;;;;;;;17.62;10.72;;;;;;;9.66;100.00;116365.14;1793546;78;21057;-63
2022/10/24 04:08:20;;;;;;;18.87;10.65;;;;;;;9.70;100.00;116029.00;1790607;79;21163;-63
2022/10/24 04:10:48;;;;;;;13.62;9.08;;;;;;;9.77;100.00;115524.77;1783815;79;21566;-62
2022/10/24 04:13:16;;;;;;;18.70;9.50;;;;;;;9.82;100.00;116912.87;1783721;79;21189;-62
2022/10/24 04:15:43;;;;;;;16.90;9.23;;;;;;;9.87;100.00;118127.49;1783934;79;21399;-62
2022/10/24 04:18:09;;;;;;;16.20;9.88;;;;;;;9.90;100.00;121752.75;1783862;79;21020;-62
2022/10/24 04:20:37;;;;;;;15.10;9.45;;;;;;;9.94;100.00;125556.89;1763391;80;21840;-62
2022/10/24 04:23:04;;;;;;;14.50;10.20;;;;;;;9.98;100.00;128847.20;1750125;81;21060;-62
2022/10/24 04:25:31;;;;;;;14.43;9.95;;;;;;;10.00;100.00;134212.63;1753059;81;21796;-63
2022/10/24 04:27:58;;;;;;;16.05;9.70;;;;;;;10.05;100.00;139245.91;1735524;81;21059;-62
2022/10/24 04:30:25;;;;;;;16.62;9.60;;;;;;;10.09;100.00;143191.59;1755044;81;21514;-63
2022/10/24 04:32:52;;;;;;;15.08;9.25;;;;;;;10.13;100.00;149229.00;1791811;78;21090;-62
2022/10/24 04:35:20;;;;;;;17.07;9.23;;;;;;;10.17;100.00;150210.50;1783829;79;21487;-62
2022/10/24 04:37:47;;;;;;;16.73;9.53;;;;;;;10.25;100.00;150229.97;1783899;79;21258;-63
2022/10/24 04:40:13;;;;;;;18.67;10.40;;;;;;;10.30;100.00;150242.94;1783549;79;21123;-64
2022/10/24 04:42:40;;;;;;;16.42;10.18;;;;;;;10.36;100.00;150258.50;1783066;79;21076;-62
2022/10/24 04:45:09;;;;;;;14.65;9.95;;;;;;;10.49;100.00;150290.97;1783732;79;21704;-65
2022/10/24 04:47:35;;;;;;;18.77;10.08;;;;;;;10.66;100.00;150332.52;1797792;79;21516;-66
2022/10/24 04:50:04;;;;;;;15.25;9.45;;;;;;;10.84;100.00;150379.23;1792996;79;21113;-66
2022/10/24 04:52:31;;;;;;;16.20;9.90;;;;;;;11.01;100.00;150420.78;1788745;79;20999;-65
2022/10/24 04:54:58;;;;;;;13.80;9.63;;;;;;;11.23;100.00;150476.59;1783900;79;21595;-64
2022/10/24 04:57:25;;;;;;;16.82;9.18;;;;;;;11.53;100.00;150551.94;1785180;79;21051;-65
2022/10/24 04:59:52;;;;;;;15.88;8.95;;;;;;;11.83;100.00;150627.23;1793190;79;21096;-64
2022/10/24 05:02:18;;;;;;;17.30;8.88;;;;;;;12.05;100.00;150681.84;1780601;80;21158;-65
2022/10/24 05:04:45;;;;;;;13.65;8.48;;;;;;;12.21;100.00;150722.09;1753784;81;21076;-65
2022/10/24 05:07:12;;;;;;;13.28;8.15;;;;;;;12.34;100.00;150753.31;1729507;81;21068;-65
2022/10/24 05:09:39;;;;;;;16.07;8.85;;;;;;;12.35;100.00;150755.91;1787722;80;21048;-65
2022/10/24 05:12:06;;;;;;;12.75;8.00;;;;;;;12.36;100.00;150758.50;1753634;80;21525;-65
2022/10/24 05:14:33;;;;;;;13.90;8.83;;;;;;;12.34;100.00;150754.58;1755428;81;21593;-65
2022/10/24 05:17:00;;;;;;;12.45;8.00;;;;;;;12.27;100.00;150737.73;1800748;78;21087;-65
2022/10/24 05:19:28;;;;;;;15.63;9.00;;;;;;;12.24;100.00;150728.63;1791676;79;21040;-65
2022/10/24 05:21:55;;;;;;;16.37;9.75;;;;;;;12.17;100.00;150713.03;1800509;79;21068;-66
2022/10/24 05:24:22;;;;;;;16.87;8.88;;;;;;;12.16;100.00;150709.13;1807971;79;21044;-65
2022/10/24 05:26:49;;;;;;;11.73;7.92;;;;;;;12.17;100.00;150711.72;1783848;79;21073;-64
2022/10/24 05:29:16;;;;;;;16.00;8.20;;;;;;;12.21;100.00;150722.09;1783206;79;21054;-65
2022/10/24 05:31:43;;;;;;;13.95;8.78;;;;;;;12.23;100.00;150727.30;1785158;79;21881;-65
2022/10/24 05:34:10;;;;;;;15.08;9.45;;;;;;;12.26;100.00;150735.09;1782151;79;21073;-66
2022/10/24 05:36:37;;;;;;;12.75;8.98;;;;;;;12.29;100.00;150742.92;1783409;79;21065;-66
2022/10/24 05:39:03;;;;;;;12.18;8.60;;;;;;;12.28;100.00;150739.00;1792479;78;21206;-65
2022/10/24 05:41:31;;;;;;;15.25;8.58;;;;;;;12.29;100.00;150742.92;1797598;78;21120;-66
2022/10/24 05:43:58;;;;;;;13.15;9.43;;;;;;;12.29;100.00;150741.59;1793417;78;21418;-65
2022/10/24 05:46:26;;;;;;;12.20;8.38;;;;;;;12.34;100.00;150753.31;1792959;78;21368;-66
2022/10/24 05:48:53;;;;;;;11.88;8.30;;;;;;;12.38;100.00;150763.69;1801559;78;21545;-62
2022/10/24 05:51:21;;;;;;;11.85;8.40;;;;;;;12.46;100.00;150784.47;1801344;78;21278;-62
2022/10/24 05:53:48;;;;;;;13.65;8.33;;;;;;;12.53;100.00;150802.69;1806301;78;21459;-64
2022/10/24 05:56:15;;;;;;;16.60;8.83;;;;;;;12.60;100.00;150820.88;1810155;78;21064;-65
2022/10/24 05:58:41;;;;;;;14.75;9.03;;;;;;;12.70;100.00;150844.25;1797401;78;21065;-65
2022/10/24 06:01:08;;;;;;;15.50;8.63;;;;;;;12.79;100.00;150867.66;1767258;79;21055;-66
2022/10/24 06:03:35;;;;;;;12.70;8.58;;;;;;;12.87;100.00;150888.44;1763571;80;21332;-66
2022/10/24 06:06:06;;;;;;;15.15;8.78;;;;;;;12.97;100.00;150911.87;1763380;79;21060;-62
2022/10/24 06:08:37;;;;;;;14.80;8.93;;;;;;;13.03;100.00;150928.73;1762306;80;21121;-62
2022/10/24 06:11:05;;;;;;;14.50;8.55;;;;;;;13.12;100.00;150950.84;1756840;80;21053;-63
2022/10/24 06:13:34;;;;;;;13.58;8.68;;;;;;;13.22;100.00;150974.27;1730372;81;21083;-63
2022/10/24 06:16:00;;;;;;;14.50;8.80;;;;;;;13.33;100.00;151002.84;1802758;78;21126;-66
2022/10/24 06:18:29;;;;;;;15.75;8.78;;;;;;;13.41;100.00;151023.69;1801577;78;22590;-64
2022/10/24 06:21:00;;;;;;;16.85;9.13;;;;;;;13.53;99.92;151052.31;1794897;78;21096;-65
2022/10/24 06:23:27;;;;;;;18.12;8.75;;;;;;;13.65;99.48;151082.22;1742294;80;21544;-65
2022/10/24 06:25:54;;;;;;;13.50;8.80;;;;;;;13.75;98.79;151109.53;1735215;81;21187;-65
2022/10/24 06:28:21;;;;;;;14.55;9.25;;;;;;;13.87;98.38;151138.17;1764398;80;21904;-62
2022/10/24 06:30:50;;;;;;;16.00;8.90;;;;;;;13.98;97.74;151166.77;1761098;80;21093;-63
2022/10/24 06:33:20;;;;;;;12.63;8.68;;;;;;;14.10;97.23;151195.41;1757640;79;21058;-64
2022/10/24 06:35:49;;;;;;;17.62;9.53;;;;;;;14.20;96.48;151221.41;1766886;80;21774;-63
2022/10/24 06:38:16;;;;;;;16.50;9.48;;;;;;;14.30;95.93;151246.13;1731648;81;21045;-62
2022/10/24 06:40:43;;;;;;;17.40;8.63;;;;;;;14.41;95.60;151273.45;1756323;80;21254;-62
2022/10/24 06:43:10;;;;;;;14.87;8.55;;;;;;;14.52;95.14;151302.11;1754360;81;21086;-62
2022/10/24 06:45:38;;;;;;;14.00;8.55;;;;;;;14.66;94.65;151337.23;1797340;78;21557;-61
2022/10/24 06:48:05;;;;;;;13.08;9.05;;;;;;;14.78;93.96;151365.89;1803166;78;21048;-62
2022/10/24 06:50:33;;;;;;;18.27;9.75;;;;;;;14.86;93.32;151388.03;1805443;78;21044;-62
2022/10/24 06:53:00;;;;;;;12.50;8.45;;;;;;;14.96;92.89;151412.75;1799063;78;21366;-62
2022/10/24 06:55:29;;;;;;;12.70;8.33;;;;;;;15.08;92.47;151441.42;1802009;78;21094;-62
2022/10/24 06:57:55;;;;;;;13.15;8.58;;;;;;;15.17;92.03;151466.16;1805672;78;21032;-62
2022/10/24 07:00:22;;;;;;;14.90;9.13;;;;;;;15.28;91.59;151492.17;1810910;78;21294;-63
2022/10/24 07:02:49;;;;;;;13.18;9.43;;;;;;;15.39;91.22;151520.84;1802034;78;21660;-62
2022/10/24 07:05:17;;;;;;;14.13;8.75;;;;;;;15.49;90.67;151544.25;1811583;78;21484;-63
2022/10/24 07:07:44;;;;;;;14.53;10.00;;;;;;;15.59;90.09;151570.33;1800734;78;20973;-62
2022/10/24 07:10:12;;;;;;;16.67;9.43;;;;;;;15.68;89.46;151592.42;1805955;78;21554;-62
2022/10/24 07:12:41;;;;;;;13.85;9.28;;;;;;;15.77;88.97;151615.89;1796680;78;21052;-63
2022/10/24 07:15:10;;;;;;;14.18;8.88;;;;;;;15.85;88.47;151635.44;1759073;80;21053;-63
2022/10/24 07:17:40;;;;;;;15.28;8.53;;;;;;;15.93;87.96;151656.31;1764988;79;21514;-62
2022/10/24 07:20:09;;;;;;;17.25;8.45;;;;;;;16.02;87.38;151678.45;1768012;79;21116;-62
2022/10/24 07:22:41;;;;;;;12.25;8.30;;;;;;;16.10;86.75;151698.02;1764258;80;21187;-61
2022/10/24 07:25:09;;;;;;;16.85;8.45;;;;;;;16.19;86.16;151721.44;1772353;80;21161;-62
2022/10/24 07:27:38;;;;;;;14.25;8.58;;;;;;;16.26;85.70;151738.37;1746931;80;21040;-62
2022/10/24 07:30:06;;;;;;;12.10;7.45;;;;;;;16.33;85.12;151757.94;1761247;80;21293;-62
2022/10/24 07:32:33;;;;;;;12.78;8.45;;;;;;;16.42;84.63;151778.77;1762519;79;21071;-62
2022/10/24 07:35:01;;;;;;;15.72;8.85;;;;;;;16.47;84.10;151791.83;1739941;81;21028;-62
2022/10/24 07:37:28;;;;;;;16.40;9.55;;;;;;;16.55;83.64;151811.33;1727783;81;21036;-62
2022/10/24 07:39:56;;;;;;;16.52;9.43;;;;;;;16.63;83.32;151830.89;1761022;79;21072;-62
2022/10/24 07:42:29;;;;;;;18.02;9.38;;;;;;;16.72;83.07;151855.66;1748293;79;21195;-62
2022/10/24 07:45:04;;;;;;;18.30;8.15;;;;;;;16.82;82.71;151879.14;1764105;79;21029;-62
2022/10/24 07:47:31;;;;;;;22.00;8.58;;;;;;;16.90;82.15;151901.25;1760189;79;21406;-62
2022/10/24 07:49:58;;;;;;;12.13;7.70;;;;;;;16.99;81.64;151922.19;1759911;81;21057;-63
2022/10/24 07:52:25;;;;;;;15.70;7.62;;;;;;;17.09;81.21;151948.23;1763757;79;21452;-63
2022/10/24 07:54:53;;;;;;;12.60;8.15;;;;;;;17.20;80.79;151974.33;1753694;79;21435;-63
2022/10/24 07:57:20;;;;;;;11.08;7.65;;;;;;;17.26;80.42;151991.30;1785752;78;21031;-63
2022/10/24 07:59:57;;;;;;;11.38;7.55;;;;;;;17.35;80.18;152013.41;1786840;79;21051;-63
2022/10/24 08:02:30;;;;;;;13.60;7.80;;;;;;;17.42;79.92;152031.70;1789550;78;21102;-62
2022/10/24 08:04:58;;;;;;;14.70;7.87;;;;;;;17.49;79.87;152047.33;1791773;78;21038;-62
2022/10/24 08:07:25;;;;;;;14.38;7.80;;;;;;;17.53;79.96;152057.75;1753687;81;21566;-62
2022/10/24 08:09:52;;;;;;;11.45;7.12;;;;;;;17.58;79.91;152072.11;1786539;79;21120;-62
2022/10/24 08:12:19;;;;;;;11.60;6.97;;;;;;;17.64;79.54;152086.47;1787743;79;21219;-63
2022/10/24 08:14:46;;;;;;;12.45;7.25;;;;;;;17.69;79.15;152099.50;1783373;78;21132;-62
2022/10/24 08:17:13;;;;;;;11.48;7.80;;;;;;;17.74;78.97;152112.53;1784553;79;21112;-62
2022/10/24 08:19:45;;;;;;;13.18;8.18;;;;;;;17.80;79.08;152126.89;1737830;79;21203;-63
2022/10/24 08:22:15;;;;;;;9.75;6.87;;;;;;;17.84;79.01;152137.31;1792608;79;21063;-62
2022/10/24 08:24:44;;;;;;;10.65;6.97;;;;;;;17.88;78.63;152146.45;1789024;78;21081;-62
2022/10/24 08:27:13;;;;;;;12.33;7.20;;;;;;;17.90;78.09;152151.67;1784038;79;20940;-63
2022/10/24 08:29:42;;;;;;;10.60;7.37;;;;;;;17.94;77.85;152160.81;1783474;78;20994;-63
2022/10/24 08:32:09;;;;;;;12.73;7.65;;;;;;;18.00;77.76;152176.45;1788187;78;21214;-63
2022/10/24 08:34:37;;;;;;;11.65;7.72;;;;;;;18.06;77.34;152190.86;1793546;78;21012;-63
2022/10/24 08:37:04;;;;;;;17.65;8.55;;;;;;;18.09;77.37;152198.69;1786489;79;20975;-63
2022/10/24 08:39:30;;;;;;;13.83;8.35;;;;;;;18.12;77.71;152206.50;1786522;78;21553;-63
2022/10/24 08:42:04;;;;;;;12.58;7.33;;;;;;;18.17;77.72;152219.53;1784717;79;21466;-61
2022/10/24 08:44:39;;;;;;;11.95;7.53;;;;;;;18.21;77.39;152229.97;1764016;79;21853;-64
2022/10/24 08:47:35;;;;;;;10.15;7.08;;;;;;;18.23;77.06;152235.17;1761276;79;21122;-65
2022/10/24 08:50:24;;;;;;;10.15;7.35;;;;;;;18.28;76.64;152248.25;1805386;78;21126;-64
2022/10/24 08:52:59;;;;;;;11.30;6.80;;;;;;;18.31;76.14;152256.08;1806665;78;21529;-64
2022/10/24 08:55:39;;;;;;;9.73;7.50;;;;;;;18.38;75.35;152271.72;1766492;79;21351;-63
2022/10/24 08:58:15;;;;;;;11.35;7.45;;;;;;;18.44;75.22;152287.36;1757335;81;21400;-66
2022/10/24 09:00:45;;;;;;;10.50;7.65;;;;;;;18.49;74.89;152300.44;1756327;80;21118;-65
2022/10/24 09:03:35;;;;;;;13.85;8.15;;;;;;;18.53;74.44;152310.88;1781209;79;21073;-64
2022/10/24 09:06:15;;;;;;;11.80;7.45;;;;;;;18.58;73.58;152323.91;1752893;78;21092;-63
2022/10/24 09:09:10;;;;;;;9.43;6.17;;;;;;;18.61;72.44;152331.73;1763159;78;21007;-64
2022/10/24 09:11:51;;;;;;;8.25;6.10;;;;;;;18.65;71.21;152339.56;1778570;79;21310;-63
2022/10/24 09:14:22;;;;;;;7.70;5.60;;;;;;;18.68;70.35;152347.38;1803535;78;21033;-63
2022/10/24 09:17:15;;;;;;;10.20;6.10;;;;;;;18.73;69.82;152360.47;1815190;78;21074;-64
2022/10/24 09:19:48;;;;;;;9.68;6.00;;;;;;;18.77;69.33;152370.91;1798339;78;21100;-63
2022/10/24 09:22:14;;;;;;;8.18;5.50;;;;;;;18.83;68.91;152385.27;1805214;78;21019;-62
2022/10/24 09:24:46;;;;;;;8.10;4.97;;;;;;;18.87;67.99;152396.97;1802248;78;21129;-62
2022/10/24 09:27:22;;;;;;;7.83;5.00;;;;;;;18.90;67.05;152404.84;1812775;78;21025;-62
2022/10/24 09:29:50;;;;;;;11.08;5.72;;;;;;;18.95;66.57;152415.28;1803103;78;21031;-64
2022/10/24 09:35:19;;;;;;;11.33;5.95;;;;;;;19.04;67.00;152438.81;1793418;78;21175;-64
2022/10/24 09:37:50;;;;;;;8.55;6.05;;;;;;;19.10;66.97;152454.45;1810277;78;21178;-64
2022/10/24 09:40:29;;;;;;;8.70;5.80;;;;;;;19.14;66.63;152463.61;1801576;78;21514;-65
2022/10/24 09:43:18;;;;;;;10.88;6.42;;;;;;;19.15;66.18;152467.55;1795021;79;20973;-62
2022/10/24 09:46:08;;;;;;;7.55;5.40;;;;;;;19.17;65.75;152472.77;1790580;79;20989;-62
2022/10/24 09:48:58;;;;;;;7.62;5.28;;;;;;;19.16;65.20;152470.16;1784182;79;21097;-64
2022/10/24 09:51:34;;;;;;;6.70;4.83;;;;;;;19.14;64.93;152464.94;1789468;79;21242;-66
2022/10/24 09:54:23;;;;;;;7.95;5.40;;;;;;;19.16;64.54;152470.16;1799283;79;21028;-63
2022/10/24 09:57:07;;;;;;;7.17;5.03;;;;;;;19.16;64.04;152470.16;1792710;79;21068;-63
2022/10/24 09:59:46;;;;;;;8.00;5.67;;;;;;;19.16;63.91;152470.16;1790950;79;21302;-63
2022/10/24 10:02:24;;;;;;;9.58;5.50;;;;;;;19.18;63.54;152475.38;1785144;79;21050;-63
2022/10/24 10:05:22;;;;;;;8.98;5.40;;;;;;;19.21;63.20;152480.59;1740233;81;21069;-64
2022/10/24 10:07:47;;;;;;;8.28;4.70;;;;;;;19.24;62.91;152488.41;1788118;79;21032;-64
2022/10/24 10:10:31;;;;;;;8.08;4.60;;;;;;;19.28;62.73;152498.84;1768106;79;21054;-64
2022/10/24 10:13:05;;;;;;;10.03;4.37;;;;;;;19.32;62.19;152509.28;1781319;78;21056;-63
2022/10/24 10:15:40;;;;;;;7.95;3.98;;;;;;;19.39;61.55;152527.59;1783793;79;21905;-63
2022/10/24 10:18:25;;;;;;;6.85;4.50;;;;;;;19.45;61.06;152541.91;1790462;79;21292;-63
2022/10/24 10:21:06;;;;;;;7.97;5.33;;;;;;;19.53;60.78;152561.50;1784948;79;21034;-64
2022/10/24 10:23:43;;;;;;;7.33;4.95;;;;;;;19.61;60.26;152583.70;1799292;79;21087;-63
2022/10/24 10:26:27;;;;;;;7.47;5.20;;;;;;;19.67;60.14;152598.08;1786896;78;21049;-64
2022/10/24 10:29:05;;;;;;;6.08;4.62;;;;;;;19.76;59.70;152621.56;1796344;79;21015;-64
2022/10/24 10:31:40;;;;;;;14.15;4.60;;;;;;;19.82;59.21;152634.66;1784044;79;21800;-63
2022/10/24 10:34:22;;;;;;;5.08;3.87;;;;;;;19.86;58.92;152645.09;1749971;79;20924;-63
2022/10/24 10:37:12;;;;;;;5.85;4.12;;;;;;;19.90;58.75;152655.53;1793113;78;21027;-64
2022/10/24 10:40:19;;;;;;;8.30;4.67;;;;;;;19.94;58.49;152666.03;1791135;78;21505;-64
2022/10/24 10:43:32;;;;;;;7.95;4.58;;;;;;;19.95;58.38;152668.62;1805970;78;21039;-65
2022/10/24 10:46:07;;;;;;;7.05;4.50;;;;;;;19.94;58.63;152666.03;1774249;79;21476;-63
2022/10/24 10:49:17;;;;;;;6.45;4.90;;;;;;;20.01;58.86;152683.02;1751332;80;21099;-64
2022/10/24 10:51:52;;;;;;;6.30;4.40;;;;;;;20.10;58.57;152705.22;1803614;78;21004;-64
2022/10/24 10:54:45;;;;;;;6.50;4.60;;;;;;;20.15;58.30;152718.28;1793848;78;21174;-64
2022/10/24 10:57:18;;;;;;;5.70;4.45;;;;;;;20.16;58.15;152722.22;1808392;78;21516;-64
2022/10/24 11:00:06;;;;;;;7.97;4.58;;;;;;;20.22;58.04;152735.27;1802061;78;21063;-64
2022/10/24 11:02:45;;;;;;;7.75;4.08;;;;;;;20.29;57.96;152753.53;1804841;78;21044;-60
2022/10/24 11:05:31;;;;;;;7.15;4.78;;;;;;;20.33;57.66;152765.30;1800576;78;21028;-65
2022/10/24 11:08:12;;;;;;;5.85;4.62;;;;;;;20.39;57.54;152778.36;1802652;78;20908;-65
2022/10/24 11:11:11;;;;;;;4.92;4.05;;;;;;;20.42;57.33;152786.19;1799197;78;21512;-65
2022/10/24 11:14:16;;;;;;;6.37;4.58;;;;;;;20.46;57.28;152796.67;1798444;78;21033;-65
2022/10/24 11:16:44;;;;;;;7.50;4.17;;;;;;;20.50;57.34;152807.13;1806505;78;20963;-65
2022/10/24 11:19:28;;;;;;;6.70;4.55;;;;;;;20.54;57.21;152817.56;1808919;78;21021;-65
2022/10/24 11:21:56;;;;;;;6.40;4.58;;;;;;;20.55;57.26;152818.84;1799343;78;21103;-65
2022/10/24 11:24:23;;;;;;;5.90;4.20;;;;;;;20.52;57.22;152811.00;1810659;78;21113;-65
2022/10/24 11:27:02;;;;;;;8.13;4.45;;;;;;;20.49;57.28;152804.50;1799196;78;21107;-65
2022/10/24 11:29:43;;;;;;;8.05;4.72;;;;;;;20.48;57.44;152801.91;1800292;78;21528;-65
2022/10/24 11:32:19;;;;;;;6.45;4.55;;;;;;;20.45;57.57;152794.06;1802751;78;21115;-65
2022/10/24 11:34:53;;;;;;;6.72;4.47;;;;;;;20.44;57.58;152791.41;1806182;78;21003;-65
2022/10/24 11:37:39;;;;;;;5.80;4.37;;;;;;;20.42;57.58;152786.19;1803641;78;21051;-64
2022/10/24 11:40:18;;;;;;;7.65;4.37;;;;;;;20.37;57.60;152774.47;1797527;78;21522;-64